Time;durP1;ratioP1;P1;durP2;ratioP2;P2;SDS_P1;SDS_P2;PMS_P1;PMS_P2;Temp;Humidity;BMP_temperature;BMP_pressure;BME280_temperature;BME280_humidity;BME280_pressure;Samples;Min_cycle;Max_cycle;Signal;HPM_P1;HPM_P2
2022/07/25 00:01:41;;;;;;;12.60;8.68;;;18.90;99.90;;;;;;5096581;28;20032;-73
2022/07/25 00:04:07;;;;;;;9.57;8.30;;;18.90;99.90;;;;;;5095855;28;20032;-73
2022/07/25 00:06:34;;;;;;;9.23;8.02;;;18.80;99.90;;;;;;5095869;28;20069;-73
2022/07/25 00:09:00;;;;;;;9.80;8.48;;;18.90;99.90;;;;;;5095874;28;20043;-73
2022/07/25 00:11:26;;;;;;;9.38;7.47;;;18.80;99.90;;;;;;5095874;28;20553;-73
2022/07/25 00:13:52;;;;;;;10.60;8.68;;;18.80;99.90;;;;;;5096114;28;20048;-73
2022/07/25 00:16:17;;;;;;;10.02;8.70;;;18.80;99.90;;;;;;5077793;28;20066;-73
2022/07/25 00:18:43;;;;;;;10.35;8.32;;;18.70;99.90;;;;;;5095731;28;20051;-73
2022/07/25 00:21:09;;;;;;;9.50;8.60;;;18.50;99.90;;;;;;5095677;28;20032;-73
2022/07/25 00:23:35;;;;;;;9.75;8.02;;;18.40;99.90;;;;;;5096424;28;20032;-73
2022/07/25 00:26:01;;;;;;;10.75;8.95;;;18.30;99.90;;;;;;5095440;28;20031;-73
2022/07/25 00:28:26;;;;;;;10.93;8.27;;;18.30;99.90;;;;;;5095836;28;20024;-74
2022/07/25 00:30:52;;;;;;;11.10;8.25;;;18.30;99.90;;;;;;5096019;28;20020;-74
2022/07/25 00:33:18;;;;;;;9.45;8.45;;;18.30;99.90;;;;;;5094900;28;20024;-74
2022/07/25 00:35:43;;;;;;;10.02;8.18;;;18.40;99.90;;;;;;5095587;28;20016;-73
2022/07/25 00:38:09;;;;;;;9.65;8.38;;;18.30;99.90;;;;;;5095587;28;20031;-74
2022/07/25 00:40:35;;;;;;;11.02;8.63;;;18.40;99.90;;;;;;5095301;28;20068;-74
2022/07/25 00:43:01;;;;;;;10.52;8.20;;;18.40;99.90;;;;;;5095804;28;20024;-74
2022/07/25 00:45:26;;;;;;;8.63;7.65;;;18.40;99.90;;;;;;5095191;28;20098;-73
2022/07/25 00:47:52;;;;;;;10.73;8.35;;;18.40;99.90;;;;;;5095363;28;20361;-74
2022/07/25 00:50:18;;;;;;;9.95;8.38;;;18.40;99.90;;;;;;5095085;28;20035;-75
2022/07/25 00:52:44;;;;;;;11.48;8.55;;;18.40;99.90;;;;;;5095055;28;20598;-75
2022/07/25 00:55:11;;;;;;;10.60;8.20;;;18.30;99.90;;;;;;5094939;28;20027;-73
2022/07/25 00:57:37;;;;;;;8.68;7.78;;;18.30;99.90;;;;;;5094955;28;20099;-74
2022/07/25 01:00:10;;;;;;;9.98;8.07;;;18.20;99.90;;;;;;5094937;28;20503;-74
2022/07/25 01:02:35;;;;;;;10.13;8.30;;;18.10;99.90;;;;;;5094812;28;20492;-74
2022/07/25 01:05:03;;;;;;;9.45;8.00;;;18.10;99.90;;;;;;5094675;28;20042;-73
2022/07/25 01:07:29;;;;;;;10.00;8.60;;;18.10;99.90;;;;;;5094616;28;20030;-74
2022/07/25 01:09:55;;;;;;;8.35;7.55;;;18.10;99.90;;;;;;5095328;28;20095;-74
2022/07/25 01:12:21;;;;;;;10.88;8.80;;;18.10;99.90;;;;;;5094941;28;20098;-74
2022/07/25 01:14:46;;;;;;;10.13;8.63;;;18.10;99.90;;;;;;5094543;28;20103;-73
2022/07/25 01:17:12;;;;;;;8.77;7.70;;;18.10;99.90;;;;;;5094549;28;20024;-74
2022/07/25 01:19:38;;;;;;;9.18;8.20;;;18.10;99.90;;;;;;5094529;28;20384;-74
2022/07/25 01:22:04;;;;;;;11.25;8.95;;;18.10;99.90;;;;;;5095007;28;20020;-74
2022/07/25 01:24:30;;;;;;;13.85;9.20;;;18.00;99.90;;;;;;5094647;28;20491;-73
2022/07/25 01:26:55;;;;;;;13.00;8.48;;;18.00;99.90;;;;;;5094332;28;20040;-74
2022/07/25 01:29:21;;;;;;;9.70;8.13;;;18.00;99.90;;;;;;5076157;28;20024;-74
2022/07/25 01:31:47;;;;;;;9.10;8.07;;;18.00;99.90;;;;;;5094318;28;20024;-74
2022/07/25 01:34:12;;;;;;;8.77;7.85;;;18.00;99.90;;;;;;5094245;28;20512;-74
2022/07/25 01:36:38;;;;;;;10.38;8.30;;;18.00;99.90;;;;;;5076322;28;20047;-74
2022/07/25 01:39:04;;;;;;;9.40;7.50;;;18.00;99.90;;;;;;5094716;28;20372;-75
2022/07/25 01:41:29;;;;;;;9.52;7.43;;;18.00;99.90;;;;;;5094390;28;20153;-75
2022/07/25 01:43:55;;;;;;;9.93;8.43;;;17.90;99.90;;;;;;5093292;28;20028;-75
2022/07/25 01:46:20;;;;;;;10.65;8.68;;;17.80;99.90;;;;;;5094222;28;20036;-74
2022/07/25 01:48:46;;;;;;;8.73;7.60;;;17.80;99.90;;;;;;5094268;28;20024;-75
2022/07/25 01:51:12;;;;;;;11.65;8.88;;;17.80;99.90;;;;;;5094258;28;20017;-75
2022/07/25 01:53:38;;;;;;;10.57;8.65;;;17.70;99.90;;;;;;5094468;28;20020;-75
2022/07/25 01:56:07;;;;;;;11.52;7.90;;;17.80;99.90;;;;;;5093802;28;20024;-74
2022/07/25 01:58:33;;;;;;;10.32;8.38;;;17.80;99.90;;;;;;5094434;28;20020;-74
2022/07/25 02:00:58;;;;;;;9.48;8.45;;;17.70;99.90;;;;;;5093863;28;20027;-75
2022/07/25 02:03:30;;;;;;;8.65;7.68;;;17.70;99.90;;;;;;5094358;28;20107;-75
2022/07/25 02:06:06;;;;;;;10.57;8.52;;;17.60;99.90;;;;;;5093575;28;20042;-74
2022/07/25 02:08:32;;;;;;;10.82;8.93;;;17.60;99.90;;;;;;5093769;28;20064;-75
2022/07/25 02:10:59;;;;;;;11.20;9.88;;;17.70;99.90;;;;;;5093688;28;20102;-75
2022/07/25 02:13:25;;;;;;;11.35;8.98;;;17.60;99.90;;;;;;5093711;28;20078;-75
2022/07/25 02:15:51;;;;;;;11.48;9.20;;;17.60;99.90;;;;;;5093576;28;20095;-74
2022/07/25 02:18:17;;;;;;;11.63;9.00;;;17.60;99.90;;;;;;5093837;28;20107;-75
2022/07/25 02:20:43;;;;;;;10.43;8.73;;;17.60;99.90;;;;;;5093886;28;20035;-75
2022/07/25 02:23:09;;;;;;;10.88;9.15;;;17.60;99.90;;;;;;5093544;28;20024;-75
2022/07/25 02:25:35;;;;;;;11.30;8.70;;;17.60;99.90;;;;;;5093444;28;20392;-73
2022/07/25 02:28:01;;;;;;;9.63;8.07;;;17.50;99.90;;;;;;5093488;28;20028;-74
2022/07/25 02:30:27;;;;;;;11.55;8.73;;;17.50;99.90;;;;;;5093449;28;20024;-74
2022/07/25 02:32:53;;;;;;;10.40;8.50;;;17.50;99.90;;;;;;5093454;28;20031;-74
2022/07/25 02:35:19;;;;;;;11.52;9.10;;;17.40;99.90;;;;;;5093339;28;20024;-73
2022/07/25 02:37:45;;;;;;;11.50;10.23;;;17.40;99.90;;;;;;5093439;28;20020;-74
2022/07/25 02:40:11;;;;;;;13.40;10.00;;;17.40;99.90;;;;;;5093624;28;20137;-74
2022/07/25 02:42:37;;;;;;;12.77;10.85;;;17.40;99.90;;;;;;5093332;28;20419;-74
2022/07/25 02:45:03;;;;;;;14.32;9.70;;;17.40;99.90;;;;;;5093281;28;20028;-73
2022/07/25 02:47:29;;;;;;;10.30;8.80;;;17.40;99.90;;;;;;5093160;28;20032;-74
2022/07/25 02:49:54;;;;;;;9.80;8.50;;;17.30;99.90;;;;;;5093262;28;20017;-74
2022/07/25 02:52:20;;;;;;;10.27;8.68;;;17.30;99.90;;;;;;5093256;28;20028;-74
2022/07/25 02:54:46;;;;;;;10.00;8.40;;;17.30;99.90;;;;;;5093321;28;20422;-73
2022/07/25 02:57:11;;;;;;;9.93;8.43;;;17.30;99.90;;;;;;5097292;28;20077;-74
2022/07/25 02:59:37;;;;;;;11.30;8.55;;;17.30;99.90;;;;;;5097235;28;20027;-74
2022/07/25 03:02:03;;;;;;;10.30;8.23;;;17.30;99.90;;;;;;5097207;28;20030;-74
2022/07/25 03:04:29;;;;;;;9.55;8.40;;;17.30;99.90;;;;;;5097033;28;20028;-73
2022/07/25 03:06:55;;;;;;;9.68;8.63;;;17.20;99.90;;;;;;5078859;28;20503;-75
2022/07/25 03:09:21;;;;;;;10.75;8.48;;;17.10;99.90;;;;;;5097048;28;20028;-74
2022/07/25 03:11:46;;;;;;;9.82;8.70;;;17.10;99.90;;;;;;5097027;28;20043;-74
2022/07/25 03:14:12;;;;;;;10.48;9.32;;;17.00;99.90;;;;;;5096990;28;20016;-75
2022/07/25 03:16:38;;;;;;;11.50;8.63;;;17.00;99.90;;;;;;5096821;28;20043;-74
2022/07/25 03:19:03;;;;;;;9.85;8.35;;;17.00;99.90;;;;;;5097408;28;20077;-75
2022/07/25 03:21:29;;;;;;;9.73;8.18;;;16.90;99.90;;;;;;5097131;28;20094;-75
2022/07/25 03:23:55;;;;;;;10.68;8.43;;;16.90;99.90;;;;;;5096771;28;20028;-75
2022/07/25 03:26:20;;;;;;;10.60;8.00;;;16.90;99.90;;;;;;5096611;28;20020;-74
2022/07/25 03:28:46;;;;;;;8.77;7.45;;;16.90;99.90;;;;;;5096926;28;20380;-75
2022/07/25 03:31:12;;;;;;;10.13;8.30;;;17.00;99.90;;;;;;5097001;28;20025;-74
2022/07/25 03:33:37;;;;;;;10.82;9.27;;;16.90;99.90;;;;;;5096550;28;20028;-75
2022/07/25 03:36:03;;;;;;;9.63;8.38;;;16.90;99.90;;;;;;5096546;28;20028;-73
2022/07/25 03:38:29;;;;;;;11.38;8.90;;;16.80;99.90;;;;;;5097032;28;20032;-75
2022/07/25 03:40:54;;;;;;;11.27;9.20;;;16.80;99.90;;;;;;5096728;28;20031;-75
2022/07/25 03:43:20;;;;;;;10.82;8.60;;;16.80;99.90;;;;;;5096688;28;20122;-75
2022/07/25 03:45:45;;;;;;;10.30;8.55;;;16.80;99.90;;;;;;5096570;28;20472;-74
2022/07/25 03:48:11;;;;;;;10.98;9.52;;;16.80;99.90;;;;;;5096522;28;20047;-74
2022/07/25 03:50:37;;;;;;;10.75;8.57;;;16.70;99.90;;;;;;5096313;28;20028;-75
2022/07/25 03:53:03;;;;;;;11.00;8.75;;;16.70;99.90;;;;;;5096789;28;20016;-75
2022/07/25 03:55:28;;;;;;;11.98;8.63;;;16.70;99.90;;;;;;5096274;28;20506;-74
2022/07/25 03:57:54;;;;;;;11.50;9.23;;;16.70;99.90;;;;;;5096146;28;20024;-75
2022/07/25 04:00:20;;;;;;;10.60;9.00;;;16.70;99.90;;;;;;5096056;28;20479;-75
2022/07/25 04:02:45;;;;;;;;;;;16.70;99.90;;;;;;5096101;28;20463;-75
2022/07/25 04:05:11;;;;;;;10.30;8.57;;;16.60;99.90;;;;;;5095944;28;20051;-74
2022/07/25 04:07:37;;;;;;;11.32;8.73;;;16.70;99.90;;;;;;5095189;28;20032;-75
2022/07/25 04:10:06;;;;;;;10.93;8.25;;;16.60;99.90;;;;;;5096212;28;20027;-75
2022/07/25 04:12:32;;;;;;;11.15;9.05;;;16.60;99.90;;;;;;5095793;28;20028;-75
2022/07/25 04:14:58;;;;;;;10.68;9.02;;;16.60;99.90;;;;;;5095694;28;20026;-74
2022/07/25 04:17:24;;;;;;;11.85;9.35;;;16.60;99.90;;;;;;5095769;28;20089;-75
2022/07/25 04:19:50;;;;;;;11.15;9.40;;;16.60;99.90;;;;;;5095725;28;20387;-74
2022/07/25 04:22:16;;;;;;;11.18;9.63;;;16.60;99.90;;;;;;5077592;28;20122;-75
2022/07/25 04:24:41;;;;;;;10.80;9.30;;;16.50;99.90;;;;;;5095861;28;20112;-74
2022/07/25 04:27:07;;;;;;;12.48;8.75;;;16.50;99.90;;;;;;5095540;28;20491;-74
2022/07/25 04:29:32;;;;;;;11.68;9.15;;;16.50;99.90;;;;;;5095556;28;20035;-75
2022/07/25 04:31:58;;;;;;;10.35;9.00;;;16.50;99.90;;;;;;5095518;28;20020;-75
2022/07/25 04:34:24;;;;;;;11.65;8.70;;;16.50;99.90;;;;;;5095331;28;20016;-74
2022/07/25 04:36:50;;;;;;;12.77;10.25;;;16.50;99.90;;;;;;5095406;28;20388;-74
2022/07/25 04:39:16;;;;;;;11.07;8.98;;;16.60;99.90;;;;;;5095327;28;20024;-75
2022/07/25 04:41:42;;;;;;;11.65;9.18;;;16.50;99.90;;;;;;5095574;28;20024;-74
2022/07/25 04:44:07;;;;;;;12.98;9.98;;;16.50;99.90;;;;;;5095507;28;20024;-75
2022/07/25 04:46:33;;;;;;;11.38;9.07;;;16.50;99.90;;;;;;5095068;28;20030;-74
2022/07/25 04:48:59;;;;;;;14.25;9.95;;;16.50;99.90;;;;;;5095447;28;20095;-75
2022/07/25 04:51:25;;;;;;;15.40;10.68;;;16.50;99.90;;;;;;5077017;28;20027;-75
2022/07/25 04:53:50;;;;;;;12.73;9.35;;;16.50;99.90;;;;;;5095037;28;20020;-74
2022/07/25 04:56:16;;;;;;;11.73;9.70;;;16.50;99.90;;;;;;5094982;28;20051;-74
2022/07/25 04:58:42;;;;;;;11.93;9.23;;;16.60;99.90;;;;;;5094991;28;20491;-74
2022/07/25 05:01:07;;;;;;;10.50;8.85;;;16.60;99.90;;;;;;5095154;28;20020;-74
2022/07/25 05:03:33;;;;;;;11.15;9.88;;;16.60;99.90;;;;;;5095188;28;20062;-75
2022/07/25 05:05:59;;;;;;;11.70;9.38;;;16.70;99.90;;;;;;5094584;28;20031;-74
2022/07/25 05:08:25;;;;;;;12.93;10.27;;;16.70;99.90;;;;;;5076494;28;20081;-75
2022/07/25 05:10:50;;;;;;;14.65;11.43;;;16.70;99.90;;;;;;5076839;28;20115;-75
2022/07/25 05:13:16;;;;;;;14.18;11.35;;;16.70;99.90;;;;;;5094716;28;20102;-75
2022/07/25 05:15:42;;;;;;;13.40;10.32;;;16.70;99.90;;;;;;5094559;28;20031;-74
2022/07/25 05:18:07;;;;;;;12.77;9.88;;;16.70;99.90;;;;;;5095086;28;20035;-75
2022/07/25 05:20:33;;;;;;;13.20;10.50;;;16.70;99.90;;;;;;5094805;28;20098;-75
2022/07/25 05:22:59;;;;;;;13.00;10.02;;;16.80;99.90;;;;;;5094508;28;20032;-75
2022/07/25 05:25:24;;;;;;;15.68;11.68;;;16.90;99.90;;;;;;5094384;28;20024;-74
2022/07/25 05:27:53;;;;;;;13.55;11.07;;;16.90;99.90;;;;;;5094388;28;20392;-75
2022/07/25 05:30:19;;;;;;;14.85;11.25;;;16.90;99.90;;;;;;5094409;28;20030;-75
2022/07/25 05:32:44;;;;;;;14.73;11.20;;;17.00;99.90;;;;;;5094597;28;20107;-74
2022/07/25 05:35:10;;;;;;;12.00;10.05;;;17.00;99.90;;;;;;5076025;28;20031;-74
2022/07/25 05:37:36;;;;;;;12.88;10.82;;;17.10;99.90;;;;;;5094545;28;20024;-76
2022/07/25 05:40:06;;;;;;;14.50;10.93;;;17.10;99.90;;;;;;5094149;28;20039;-74
2022/07/25 05:42:33;;;;;;;15.30;11.30;;;17.20;99.90;;;;;;5094466;28;20405;-74
2022/07/25 05:44:59;;;;;;;13.00;10.68;;;17.30;99.90;;;;;;5094438;28;20036;-75
2022/07/25 05:47:24;;;;;;;13.48;10.80;;;17.30;99.90;;;;;;5094311;28;20081;-74
2022/07/25 05:49:50;;;;;;;13.90;11.70;;;17.40;99.90;;;;;;5094035;28;20430;-74
2022/07/25 05:52:16;;;;;;;14.65;11.63;;;17.50;99.90;;;;;;5094306;28;20028;-75
2022/07/25 05:54:41;;;;;;;12.70;11.00;;;17.60;99.90;;;;;;5094107;28;20024;-74
2022/07/25 05:57:07;;;;;;;16.02;11.48;;;17.60;99.90;;;;;;5093922;28;20024;-75
2022/07/25 05:59:33;;;;;;;13.32;11.18;;;17.70;99.90;;;;;;5093873;28;20502;-75
2022/07/25 06:02:00;;;;;;;14.27;10.93;;;17.80;99.90;;;;;;5093854;28;20046;-75
2022/07/25 06:04:26;;;;;;;11.45;10.25;;;17.90;99.90;;;;;;5093622;28;20530;-74
2022/07/25 06:06:52;;;;;;;13.32;10.20;;;18.00;99.90;;;;;;5093680;28;20070;-75
2022/07/25 06:09:21;;;;;;;14.95;11.93;;;18.10;99.90;;;;;;5075649;28;20077;-75
2022/07/25 06:11:50;;;;;;;15.15;12.50;;;18.20;99.90;;;;;;5093698;28;20035;-75
2022/07/25 06:14:15;;;;;;;16.50;12.63;;;18.30;99.90;;;;;;5093706;28;20141;-75
2022/07/25 06:16:42;;;;;;;16.30;12.35;;;18.40;99.90;;;;;;5093814;28;20047;-74
2022/07/25 06:19:07;;;;;;;13.13;11.38;;;18.60;99.90;;;;;;5093618;28;20024;-75
2022/07/25 06:21:33;;;;;;;14.70;12.23;;;18.60;99.90;;;;;;5094370;28;20034;-74
2022/07/25 06:23:59;;;;;;;15.48;13.43;;;18.70;99.90;;;;;;5094069;28;20073;-74
2022/07/25 06:26:25;;;;;;;15.13;12.90;;;18.80;99.90;;;;;;5093350;28;20020;-75
2022/07/25 06:28:51;;;;;;;17.63;14.60;;;18.90;99.90;;;;;;5093709;28;20032;-75
2022/07/25 06:31:16;;;;;;;15.77;12.95;;;19.00;99.90;;;;;;5092936;28;20028;-74
2022/07/25 06:33:42;;;;;;;18.42;14.15;;;19.20;99.90;;;;;;5093723;28;20024;-74
2022/07/25 06:36:08;;;;;;;20.58;15.25;;;19.20;99.90;;;;;;5093327;28;20035;-75
2022/07/25 06:38:34;;;;;;;17.27;15.07;;;19.40;99.90;;;;;;5075408;28;20020;-75
2022/07/25 06:40:59;;;;;;;19.13;13.95;;;19.40;99.90;;;;;;5093414;28;20032;-75
2022/07/25 06:43:25;;;;;;;17.42;13.48;;;19.50;99.90;;;;;;5093423;28;20389;-75
2022/07/25 06:45:51;;;;;;;15.68;12.82;;;19.60;99.90;;;;;;5093406;28;20099;-75
2022/07/25 06:48:17;;;;;;;14.57;12.32;;;19.70;99.90;;;;;;5093253;28;20109;-75
2022/07/25 06:50:43;;;;;;;17.85;14.05;;;19.80;99.90;;;;;;5093577;28;20016;-75
2022/07/25 06:53:08;;;;;;;15.98;13.40;;;19.80;99.90;;;;;;5093298;28;20525;-75
2022/07/25 06:55:34;;;;;;;16.45;14.52;;;20.00;99.90;;;;;;5093451;28;20032;-74
2022/07/25 06:58:00;;;;;;;15.48;13.35;;;20.10;99.90;;;;;;5093197;28;20028;-74
2022/07/25 07:00:26;;;;;;;16.83;13.93;;;20.20;99.90;;;;;;5075088;28;20551;-75
2022/07/25 07:02:57;;;;;;;18.23;15.40;;;20.30;99.90;;;;;;5093196;28;20031;-75
2022/07/25 07:05:31;;;;;;;17.15;15.00;;;20.50;99.90;;;;;;5092796;28;20426;-74
2022/07/25 07:07:57;;;;;;;14.60;12.68;;;20.60;99.90;;;;;;5074922;28;20111;-74
2022/07/25 07:10:24;;;;;;;16.55;14.07;;;20.70;99.90;;;;;;5093103;28;20025;-74
2022/07/25 07:12:50;;;;;;;20.58;17.00;;;20.90;99.90;;;;;;5092795;28;20028;-74
2022/07/25 07:15:16;;;;;;;19.05;15.77;;;21.10;99.90;;;;;;5093295;28;20051;-75
2022/07/25 07:17:42;;;;;;;16.38;13.50;;;21.20;99.90;;;;;;5092850;28;20028;-74
2022/07/25 07:20:09;;;;;;;17.17;14.32;;;21.30;99.90;;;;;;5093079;28;20024;-74
2022/07/25 07:22:45;;;;;;;14.77;12.80;;;21.50;99.90;;;;;;5093528;28;20017;-75
2022/07/25 07:25:13;;;;;;;19.08;14.55;;;21.60;99.90;;;;;;5093011;28;20503;-75
2022/07/25 07:27:38;;;;;;;20.02;16.77;;;21.80;99.90;;;;;;5093154;28;20435;-75
2022/07/25 07:30:05;;;;;;;18.27;15.20;;;21.90;99.90;;;;;;5092929;28;20052;-76
2022/07/25 07:32:30;;;;;;;16.02;12.50;;;22.10;99.90;;;;;;5092875;28;20107;-74
2022/07/25 07:34:56;;;;;;;14.85;12.77;;;22.20;99.90;;;;;;5092905;28;20103;-74
2022/07/25 07:37:21;;;;;;;17.48;12.82;;;22.30;99.90;;;;;;5093075;28;20024;-75
2022/07/25 07:39:47;;;;;;;15.50;13.23;;;22.40;99.90;;;;;;5093175;28;20024;-76
2022/07/25 07:42:13;;;;;;;14.40;12.32;;;22.60;99.90;;;;;;5093614;28;20024;-75
2022/07/25 07:44:38;;;;;;;17.08;13.73;;;22.70;99.90;;;;;;5096398;28;20028;-75
2022/07/25 07:47:04;;;;;;;14.32;12.82;;;22.80;99.90;;;;;;5078147;28;20387;-75
2022/07/25 07:49:30;;;;;;;15.13;12.13;;;23.00;99.90;;;;;;5096376;28;20398;-75
2022/07/25 07:51:55;;;;;;;13.57;12.15;;;23.10;99.90;;;;;;5096830;28;20200;-75
2022/07/25 07:57:05;;;;;;;14.43;12.32;;;23.40;99.90;;;;;;5096249;28;20076;-75
2022/07/25 07:59:31;;;;;;;14.27;12.48;;;23.50;99.90;;;;;;5078043;28;20114;-75
2022/07/25 08:01:56;;;;;;;14.70;12.38;;;23.70;99.90;;;;;;5096120;28;20028;-75
2022/07/25 08:04:22;;;;;;;13.40;12.00;;;23.90;99.90;;;;;;5095845;28;20133;-75
2022/07/25 08:06:47;;;;;;;13.43;12.07;;;24.10;99.90;;;;;;5095950;28;20040;-75
2022/07/25 08:09:13;;;;;;;12.68;11.20;;;24.20;99.90;;;;;;5096101;28;20051;-75
2022/07/25 08:11:39;;;;;;;13.15;11.77;;;24.40;99.70;;;;;;5095897;28;20039;-75
2022/07/25 08:14:05;;;;;;;15.25;11.90;;;24.50;99.20;;;;;;5095836;28;20028;-75
2022/07/25 08:16:32;;;;;;;14.07;11.27;;;24.60;98.30;;;;;;5077574;28;20539;-75
2022/07/25 08:18:57;;;;;;;11.75;10.52;;;24.80;98.10;;;;;;5095674;28;20024;-75
2022/07/25 08:21:23;;;;;;;12.70;11.27;;;24.90;98.30;;;;;;5095733;28;20391;-74
2022/07/25 08:23:49;;;;;;;12.80;11.40;;;25.10;98.10;;;;;;5096178;28;20349;-74
2022/07/25 08:26:15;;;;;;;13.82;11.15;;;25.20;98.20;;;;;;5095825;28;20428;-75
2022/07/25 08:28:41;;;;;;;12.98;11.68;;;25.40;97.50;;;;;;5095545;28;20028;-75
2022/07/25 08:31:07;;;;;;;12.93;11.63;;;25.40;97.00;;;;;;5077390;28;20039;-75
2022/07/25 08:33:32;;;;;;;15.13;11.60;;;25.50;96.40;;;;;;5095831;28;20012;-76
2022/07/25 08:35:59;;;;;;;14.07;11.88;;;25.50;96.70;;;;;;5095598;28;20504;-75
2022/07/25 08:38:26;;;;;;;12.65;11.35;;;25.60;97.50;;;;;;5095434;28;20388;-76
2022/07/25 08:40:53;;;;;;;12.73;11.27;;;25.70;96.60;;;;;;5095368;28;20469;-75
2022/07/25 08:43:19;;;;;;;13.55;11.23;;;25.80;96.30;;;;;;5095519;28;20073;-76
2022/07/25 08:45:52;;;;;;;12.65;11.35;;;26.00;96.60;;;;;;5095110;28;20024;-75
2022/07/25 08:48:20;;;;;;;15.02;11.57;;;26.20;96.30;;;;;;5094213;28;20086;-75
2022/07/25 08:50:47;;;;;;;13.02;11.70;;;26.40;96.70;;;;;;5070552;28;20030;-74
2022/07/25 08:53:16;;;;;;;13.30;11.90;;;26.40;95.60;;;;;;5094067;28;20028;-75
2022/07/25 08:55:44;;;;;;;11.98;10.77;;;26.50;95.90;;;;;;5093211;28;20047;-74
2022/07/25 08:58:11;;;;;;;12.15;10.95;;;26.70;94.90;;;;;;5094862;28;20103;-75
2022/07/25 09:00:37;;;;;;;;;;;26.90;94.70;;;;;;5075637;28;20038;-75
2022/07/25 09:03:05;;;;;;;;;;;27.00;94.90;;;;;;5094144;28;20045;-76
2022/07/25 09:05:31;;;;;;;;;;;27.10;94.90;;;;;;5094312;28;19912;-75
2022/07/25 09:07:57;;;;;;;;;;;27.30;94.20;;;;;;5095209;28;19965;-75
2022/07/25 09:10:23;;;;;;;;;;;27.40;94.10;;;;;;5095153;28;19904;-76
2022/07/25 09:13:12;;;;;;;;;;;27.60;93.90;;;;;;5095402;28;19904;-76
2022/07/25 09:15:39;;;;;;;;;;;27.60;93.50;;;;;;5095028;28;19908;-75
2022/07/25 09:18:06;;;;;;;;;;;27.80;93.70;;;;;;5095340;28;19904;-75
2022/07/25 09:20:36;;;;;;;;;;;28.00;93.30;;;;;;5095055;28;19939;-75
2022/07/25 09:23:02;;;;;;;;;;;28.10;93.00;;;;;;5095025;28;19904;-75
2022/07/25 09:25:28;;;;;;;;;;;28.20;92.40;;;;;;5094796;28;19904;-75
2022/07/25 09:27:54;;;;;;;;;;;28.30;92.20;;;;;;5095060;28;19961;-75
2022/07/25 09:30:20;;;;;;;;;;;28.40;91.40;;;;;;5094842;28;19979;-75
2022/07/25 09:32:45;;;;;;;;;;;28.50;91.20;;;;;;5094905;28;19904;-75
2022/07/25 09:35:11;;;;;;;;;;;28.60;91.30;;;;;;5093742;28;19904;-74
2022/07/25 09:37:37;;;;;;;;;;;28.70;91.70;;;;;;5093746;28;19904;-75
2022/07/25 09:40:10;;;;;;;;;;;28.90;91.20;;;;;;5090507;28;19908;-73
2022/07/25 09:42:36;;;;;;;;;;;28.90;90.50;;;;;;5084336;28;19910;-74
2022/07/25 09:45:11;;;;;;;;;;;29.10;90.00;;;;;;5093592;28;19903;-74
2022/07/25 09:47:49;;;;;;;;;;;29.20;89.20;;;;;;5082339;28;19965;-74
2022/07/25 09:50:15;;;;;;;;;;;29.30;90.40;;;;;;5099299;28;19915;-72
2022/07/25 09:52:41;;;;;;;;;;;29.40;87.90;;;;;;5096043;28;19908;-73
2022/07/25 09:55:08;;;;;;;;;;;29.50;86.20;;;;;;5090317;28;20442;-72
2022/07/25 09:57:34;;;;;;;;;;;29.60;87.80;;;;;;5086914;28;19912;-71
2022/07/25 10:00:00;;;;;;;;;;;29.70;84.80;;;;;;5099099;28;20383;-71
2022/07/25 10:02:39;;;;;;;;;;;29.80;83.40;;;;;;5092829;28;19904;-71
2022/07/25 10:05:11;;;;;;;;;;;29.90;81.50;;;;;;5073993;28;19912;-71
2022/07/25 10:07:38;;;;;;;;;;;30.00;83.60;;;;;;5102761;28;19977;-72
2022/07/25 10:10:04;;;;;;;;;;;30.20;81.90;;;;;;5114499;28;19929;-72
2022/07/25 10:12:30;;;;;;;;;;;30.30;79.10;;;;;;5101806;28;19904;-72
2022/07/25 10:15:21;;;;;;;;;;;30.40;78.20;;;;;;5102642;28;20387;-70
2022/07/25 10:17:49;;;;;;;;;;;30.40;79.30;;;;;;5077286;28;19950;-72
2022/07/25 10:20:14;;;;;;;10.80;9.77;;;30.60;81.90;;;;;;5086818;28;20025;-71
2022/07/25 10:22:45;;;;;;;;;;;30.80;78.90;;;;;;5085253;28;20103;-71
2022/07/25 10:25:14;;;;;;;;;;;30.90;78.40;;;;;;5092160;28;19912;-71
2022/07/25 10:27:47;;;;;;;;;;;31.00;78.50;;;;;;5079717;28;19912;-71
2022/07/25 10:30:23;;;;;;;;;;;31.20;79.00;;;;;;5092846;28;19904;-71
2022/07/25 10:32:50;;;;;;;;;;;31.30;75.30;;;;;;5093865;28;19908;-71
2022/07/25 10:35:16;;;;;;;;;;;31.40;74.80;;;;;;5093846;28;20005;-71
2022/07/25 10:37:43;;;;;;;;;;;31.50;76.90;;;;;;5094431;28;19904;-72
2022/07/25 10:40:09;;;;;;;;;;;31.60;74.80;;;;;;5094100;28;19948;-72
2022/07/25 10:42:35;;;;;;;;;;;31.60;73.00;;;;;;5094083;28;20006;-72
2022/07/25 10:45:04;;;;;;;;;;;31.70;72.50;;;;;;5094111;28;19904;-71
2022/07/25 10:47:36;;;;;;;;;;;31.80;72.80;;;;;;5094448;28;19958;-72
2022/07/25 10:50:02;;;;;;;;;;;31.90;75.00;;;;;;5094086;28;19916;-72
2022/07/25 10:52:28;;;;;;;;;;;32.10;73.80;;;;;;5075020;28;19904;-70
2022/07/25 10:54:55;;;;;;;;;;;32.30;71.80;;;;;;5092986;28;20393;-71
2022/07/25 10:57:21;;;;;;;;;;;32.30;70.00;;;;;;5094162;28;19911;-71
2022/07/25 10:59:47;;;;;;;;;;;32.40;66.60;;;;;;5074564;28;19908;-71
2022/07/25 11:02:15;;;;;;;;;;;32.50;65.50;;;;;;5091000;28;19904;-70
2022/07/25 11:04:42;;;;;;;;;;;32.60;68.00;;;;;;5073339;28;19912;-71
2022/07/25 11:07:11;;;;;;;;;;;32.70;65.20;;;;;;5092439;28;19913;-71
2022/07/25 11:09:37;;;;;;;;;;;32.70;62.20;;;;;;5093002;28;19911;-71
2022/07/25 11:12:03;;;;;;;;;;;32.80;62.70;;;;;;5093831;28;19911;-72
2022/07/25 11:14:31;;;;;;;;;;;32.90;64.00;;;;;;5093676;28;19904;-71
2022/07/25 11:17:09;;;;;;;;;;;33.00;60.50;;;;;;5095134;28;20345;-71
2022/07/25 11:19:34;;;;;;;;;;;33.00;59.10;;;;;;5086523;28;19954;-72
2022/07/25 11:22:00;;;;;;;;;;;33.00;57.80;;;;;;5077719;28;20400;-72
2022/07/25 11:24:39;;;;;;;;;;;32.90;56.40;;;;;;5097137;28;19908;-73
2022/07/25 11:27:06;;;;;;;;;;;33.00;56.60;;;;;;5096970;28;19912;-72
2022/07/25 11:29:33;;;;;;;;;;;33.00;56.20;;;;;;5097474;28;19910;-72
2022/07/25 11:32:00;;;;;;;;;;;33.00;56.10;;;;;;5097442;28;19904;-72
2022/07/25 11:34:28;;;;;;;;;;;33.00;58.40;;;;;;5096976;28;20368;-72
2022/07/25 11:36:56;;;;;;;;;;;33.10;57.30;;;;;;5097369;28;19900;-72
2022/07/25 11:39:26;;;;;;;;;;;33.20;57.70;;;;;;5096922;28;19904;-72
2022/07/25 11:41:59;;;;;;;;;;;33.20;54.10;;;;;;5096769;28;19904;-72
2022/07/25 11:44:38;;;;;;;;;;;33.20;55.80;;;;;;5079187;28;19904;-73
2022/07/25 11:47:05;;;;;;;;;;;33.20;56.50;;;;;;5078654;28;19908;-71
2022/07/25 11:49:41;;;;;;;;;;;33.40;58.00;;;;;;5096844;28;19953;-72
2022/07/25 11:52:16;;;;;;;;;;;33.70;56.60;;;;;;5097027;28;19908;-72
2022/07/25 11:54:49;;;;;;;;;;;33.90;50.10;;;;;;5096407;28;19912;-72
2022/07/25 11:57:19;;;;;;;;;;;33.90;47.70;;;;;;5096713;28;20412;-72
2022/07/25 11:59:44;;;;;;;;;;;34.00;50.30;;;;;;5096911;28;19958;-71
2022/07/25 12:02:19;;;;;;;;;;;34.10;52.80;;;;;;5081282;28;19908;-71
2022/07/25 12:04:52;;;;;;;;;;;34.20;49.50;;;;;;5103269;28;20044;-72
2022/07/25 12:07:17;;;;;;;;;;;34.30;50.90;;;;;;5117404;28;19907;-72
2022/07/25 12:09:43;;;;;;;;;;;34.40;53.20;;;;;;5096748;28;19915;-71
2022/07/25 12:12:08;;;;;;;;;;;34.60;49.20;;;;;;5113350;28;19903;-71
2022/07/25 12:14:43;;;;;;;;;;;34.70;50.10;;;;;;5091384;28;19914;-71
2022/07/25 12:17:09;;;;;;;;;;;34.90;50.10;;;;;;5090671;28;19909;-72
2022/07/25 12:19:34;;;;;;;;;;;35.00;49.60;;;;;;5086226;28;19914;-72
2022/07/25 12:22:00;;;;;;;;;;;34.90;50.20;;;;;;5077382;28;19948;-71
2022/07/25 12:24:25;;;;;;;;;;;35.00;48.30;;;;;;5094189;28;20023;-71
2022/07/25 12:26:51;;;;;;;;;;;34.90;49.00;;;;;;5092964;28;20272;-71
2022/07/25 12:29:16;;;;;;;;;;;35.00;50.00;;;;;;5093509;28;20041;-72
2022/07/25 12:31:42;;;;;;;;;;;35.10;47.50;;;;;;5092624;28;20249;-72
2022/07/25 12:34:07;;;;;;;;;;;35.10;48.70;;;;;;5085634;28;20383;-71
2022/07/25 12:36:39;;;;;;;;;;;35.10;47.20;;;;;;5056387;28;19998;-71
2022/07/25 12:39:05;;;;;;;;;;;35.20;48.40;;;;;;5074128;28;24125;-72
2022/07/25 12:41:30;;;;;;;;;;;35.30;48.00;;;;;;5073305;28;19912;-72
2022/07/25 12:43:57;;;;;;;;;;;35.40;48.80;;;;;;5074656;28;19916;-71
2022/07/25 12:46:23;;;;;;;;;;;35.50;47.60;;;;;;5088349;28;20033;-71
2022/07/25 12:48:48;;;;;;;;;;;35.60;47.50;;;;;;5094237;28;24112;-70
2022/07/25 12:51:14;;;;;;;;;;;35.50;47.20;;;;;;5089825;28;20047;-71
2022/07/25 12:53:39;;;;;;;;;;;35.60;48.20;;;;;;5084414;28;20103;-70
2022/07/25 12:56:05;;;;;;;;;;;35.80;46.30;;;;;;5100176;28;20480;-71
2022/07/25 12:58:31;;;;;;;;;;;35.80;47.70;;;;;;5112393;28;20045;-71
2022/07/25 13:00:56;;;;;;;;;;;35.80;45.50;;;;;;5101252;28;20059;-71
2022/07/25 13:03:22;;;;;;;;;;;35.70;48.80;;;;;;5085478;28;20065;-71